메인 페이지
METAR-TAF:

METAR-TAF

공항 :

멕시코시티, 멕시코

멕시코시티 국제공항

위도: 19-26N, 경도: 099-06W, 고도: 2238m

현재 날씨관측

예보는 24분 전, 18:44시(UTC)에 발표되었습니다.
3kt
온도 18°C
습도 26%
기압 1026 hPa
시정: 8.0km
고도 23000ft 상공 구름 많음

METAR: MMMX 191844Z 01003KT 5SM BKN230 18/M02 A3031 NOSIG RMK 8/008 HZY DSNT CU E

시각: 13:08 (19:08 UTC)

예보

예보는 2 시간 35분 전, 16:33시(UTC)에 발표되었습니다.
예보 대상 시간: 19일 18시부터 20일 24시까지 (UTC)
남동8kt
시정: 8.0km
고도 25000ft 상공 구름 보통
연무
19일 2100시부터 (UTC)
남남서12kt
시정: 10km
고도 20000ft 상공 구름 많음
20일 0100시부터 (UTC)
kt
시정: 10km
고도 25000ft 상공 구름 보통
20일 1300시부터 (UTC)
kt
시정: 6.4km
맑음
연무, 연기
20일 2000시부터 (UTC)
남서12kt
시정: 10km
고도 2500ft 상공 구름 보통

TAF: MMMX 191633Z 1918/2024 13008KT 5SM HZ SCT250 TX22/1921Z TN08/2012Z FM192100 20012KT P6SM BKN200 FM200100 00000KT P6SM SCT250 FM201300 00000KT 4SM HZ FU SKC FM202000 23012KT P6SM SCT025

4,000개 이상의 공항 관측 자료 및 예보 (METAR 및 TAF 보고).

지도상에서 검색 가능한 기상관측소가 노란 점과 빨간 점으로 표시되어 있습니다.

기상관측소 명을 보려면 표시 위로 마우스를 이동하세요.

날씨 관측과 예보를 보려면 클릭하세요.

지도 변경 : 확대하려면 엑스 표시가 있는 녹색 버튼, 축소하려면 빼기 표시가 있는 녹색 버튼, 다음 페이지의 지도를 보려면 녹색 화살표를 클릭하세요.


METAR-TAF: